This is the latest recevied weather packets stored in our database for station/object K7GFH-13. If no packets are shown the sender has not sent any weather packets the latest 10 day(s).
| Time | Temp. | Humidity | Pressure | Rain* | Wind** | Luminosity | Snow |
|---|---|---|---|---|---|---|---|
| 1778119044 | 17.22° C | 74% | 1021.7 hPa | 0 mm | - | 80 W/m² | - |
| 1778118139 | 17.22° C | 74% | 1021.9 hPa | 0 mm | - | 61 W/m² | - |
| 1778117236 | 17.78° C | 72% | 1021.7 hPa | 0 mm | - | 105 W/m² | - |
| 1778116337 | 17.78° C | 71% | 1021.9 hPa | 0 mm | - | 92 W/m² | - |
| 1778115435 | 17.78° C | 70% | 1021.8 hPa | 0 mm | - | 126 W/m² | - |
| 1778114532 | 18.33° C | 69% | 1021.9 hPa | 0 mm | - | 113 W/m² | - |
| 1778113630 | 19.44° C | 64% | 1021.8 hPa | 0 mm | - | 392 W/m² | - |
| 1778112727 | 20° C | 61% | 1021.8 hPa | 0 mm | - | 168 W/m² | - |
| 1778111821 | 19.44° C | 62% | 1022 hPa | 0 mm | - | 440 W/m² | - |
| 1778110917 | 18.33° C | 67% | 1022.1 hPa | 0 mm | - | 415 W/m² | - |
| 1778110013 | 18.33° C | 67% | 1021.8 hPa | 0 mm | - | 247 W/m² | - |
| 1778109111 | 18.33° C | 69% | 1022.2 hPa | 0 mm | - | 534 W/m² | - |
| 1778108206 | 17.78° C | 71% | 1022.4 hPa | 0 mm | - | 193 W/m² | - |
| 1778107302 | 18.89° C | 69% | 1022.4 hPa | 0 mm | - | 308 W/m² | - |
| 1778106397 | 17.78° C | 68% | 1022.3 hPa | 0 mm | - | 707 W/m² | - |
| 1778105495 | 18.89° C | 66% | 1022.7 hPa | 0 mm | - | 243 W/m² | - |
| 1778104595 | 17.78° C | 70% | 1022.5 hPa | 0 mm | - | 383 W/m² | - |
| 1778103691 | 18.33° C | 70% | 1022.6 hPa | 0 mm | - | 332 W/m² | - |
| 1778102790 | 17.22° C | 74% | 1022.8 hPa | 0 mm | - | 336 W/m² | - |
| 1778101889 | 17.78° C | 70% | 1022.8 hPa | 0 mm | - | 363 W/m² | - |
| 1778100985 | 17.22° C | 72% | 1022.7 hPa | 0 mm | - | 356 W/m² | - |
| 1778100081 | 16.67° C | 75% | 1022.8 hPa | 0 mm | - | 301 W/m² | - |
| 1778099179 | 16.67° C | 76% | 1022.8 hPa | 0 mm | - | 305 W/m² | - |
| 1778098275 | 16.67° C | 77% | 1023.2 hPa | 0 mm | - | 251 W/m² | - |
| 1778097371 | 15.56° C | 80% | 1022.9 hPa | 0 mm | - | 209 W/m² | - |
* Rain latest hour (hover to see other rain measurements)
** Current wind speed in m/s (hover to see current wind gust speed)